CHICAGO AURORA MUNICIPAL, IL, United States (KARR) 41-46N 088-28W 215M
Wind: from the SSW (200 degrees) at 9 MPH (8 KT):0
Visibility: 10 mile(s):0
Sky conditions: clear
Temperature: 44.1 F (6.7 C)
Dew Point: 33.1 F (0.6 C)
Relative Humidity: 65%
Pressure (altimeter): 30.15 in. Hg (1020 hPa)
Pressure tendency: 0.06 inches (2.1 hPa) lower than three hours ago
ob: KARR 191152Z AUTO 20008KT 10SM CLR 07/01 A3015 RMK AO2 SLP213 T00670006 10067 20050 56021
Raw METAR:KARR 191152Z AUTO 20008KT 10SM CLR 07/01 A3015 RMK AO2 SLP213 T00670006 10067 20050 56021
cycle: 12
Back to top

CHICAGO/WEST CH DUPAGE, IL, United States (KDPA) 41-54N 88-15W 230M
Wind: from the S (190 degrees) at 6 MPH (5 KT):0
Visibility: 10 mile(s):0
Sky conditions: clear
Temperature: 43.0 F (6.1 C)
Dew Point: 33.1 F (0.6 C)
Relative Humidity: 67%
Pressure (altimeter): 30.14 in. Hg (1020 hPa)
Pressure tendency: 0.07 inches (2.3 hPa) lower than three hours ago
ob: KDPA 191152Z 19005KT 10SM CLR 06/01 A3014 RMK AO2 SLP210 T00610006 10072 20044 56023
Raw METAR:KDPA 191152Z 19005KT 10SM CLR 06/01 A3014 RMK AO2 SLP210 T00610006 10072 20044 56023
cycle: 12
Back to top

De Kalb, De Kalb Taylor Municipal Airport, IL, United States (KDKB) 41-55-55N 088-42-30W
Wind: from the SSW (200 degrees) at 9 MPH (8 KT):0
Visibility: 10 mile(s):0
Sky conditions: clear
Temperature: 41.9 F (5.5 C)
Dew Point: 35.6 F (2.0 C)
Relative Humidity: 78%
Pressure (altimeter): 30.15 in. Hg (1020 hPa)
ob: KDKB 191135Z AUTO 20008KT 10SM CLR 06/02 A3015 RMK AO2 T00550020
Raw METAR:KDKB 191135Z AUTO 20008KT 10SM CLR 06/02 A3015 RMK AO2 T00550020
cycle: 11
Back to top

Joliet, Joliet Regional Airport, IL, United States (KJOT) 41-31-05N 088-10-31W
Wind: from the S (190 degrees) at 7 MPH (6 KT):0
Visibility: 10 mile(s):0
Sky conditions: clear
Temperature: 45.7 F (7.6 C)
Dew Point: 35.4 F (1.9 C)
Relative Humidity: 67%
Pressure (altimeter): 30.17 in. Hg (1021 hPa)
ob: KJOT 191135Z AUTO 19006KT 10SM CLR 08/02 A3017 RMK AO2 T00760019
Raw METAR:KJOT 191135Z AUTO 19006KT 10SM CLR 08/02 A3017 RMK AO2 T00760019
cycle: 11
Back to top

Kankakee, Greater Kankakee Airport, IL, United States (KIKK) 41-04-17N 087-50-47W
Wind: from the SSW (200 degrees) at 8 MPH (7 KT):0
Visibility: 10 mile(s):0
Sky conditions: clear
Temperature: 42.3 F (5.7 C)
Dew Point: 32.4 F (0.2 C)
Relative Humidity: 67%
Pressure (altimeter): 30.2 in. Hg (1022 hPa)
ob: KIKK 191135Z AUTO 20007KT 10SM CLR 06/00 A3020 RMK AO2 T00570002
Raw METAR:KIKK 191135Z AUTO 20007KT 10SM CLR 06/00 A3020 RMK AO2 T00570002
cycle: 11
Back to top

Morris, Morris Municipal-James R Washburn Field Airport, IL, United States (KC09) 41-25-31N 088-25-07W
Wind: from the S (180 degrees) at 6 MPH (5 KT):0
Visibility: 10 mile(s):0
Sky conditions: clear
Temperature: 39.7 F (4.3 C)
Dew Point: 33.8 F (1.0 C)
Relative Humidity: 79%
Pressure (altimeter): 30.17 in. Hg (1021 hPa)
ob: KC09 191135Z AUTO 18005KT 10SM CLR 04/01 A3017 RMK AO2 T00430010
Raw METAR:KC09 191135Z AUTO 18005KT 10SM CLR 04/01 A3017 RMK AO2 T00430010
cycle: 11
Back to top

Peru, Illinois Valley Regional-Walter A Duncan Field Airport, IL, United States (KVYS) 41-21-07N 089-09-11W
Wind: from the SW (220 degrees) at 9 MPH (8 KT):0
Visibility: 10 mile(s):0
Sky conditions: clear
Temperature: 45.5 F (7.5 C)
Dew Point: 36.3 F (2.4 C)
Relative Humidity: 70%
Pressure (altimeter): 30.19 in. Hg (1022 hPa)
ob: KVYS 191135Z AUTO 22008KT 10SM CLR 08/02 A3019 RMK AO2 T00750024
Raw METAR:KVYS 191135Z AUTO 22008KT 10SM CLR 08/02 A3019 RMK AO2 T00750024
cycle: 11
Back to top

Rochelle, Rochelle Municipal-Koritz Field Airport, IL, United States (KRPJ) 41-53-35N 089-04-42W
Wind: from the SSW (200 degrees) at 8 MPH (7 KT):0
Visibility: 10 mile(s):0
Sky conditions: clear
Temperature: 42.8 F (6.0 C)
Dew Point: 35.6 F (2.0 C)
Relative Humidity: 75%
Pressure (altimeter): 30.15 in. Hg (1020 hPa)
ob: KRPJ 191135Z AUTO 20007KT 10SM CLR 06/02 A3015 RMK AO2 T00600020
Raw METAR:KRPJ 191135Z AUTO 20007KT 10SM CLR 06/02 A3015 RMK AO2 T00600020
cycle: 11
Back to top